Time;durP1;ratioP1;P1;durP2;ratioP2;P2;SDS_P1;SDS_P2;PMS_P1;PMS_P2;Temp;Humidity;BMP_temperature;BMP_pressure;BME280_temperature;BME280_humidity;BME280_pressure;Samples;Min_cycle;Max_cycle;Signal;HPM_P1;HPM_P2
2024/02/20 00:00:42;;;;;;;8.85;1.63;;;6.90;99.90;;;;;;5031162;28;20076;-82
2024/02/20 00:03:09;;;;;;;7.10;1.40;;;6.90;99.90;;;;;;5026623;28;20049;-82
2024/02/20 00:05:36;;;;;;;5.45;1.52;;;6.90;99.90;;;;;;5046258;28;20029;-82
2024/02/20 00:08:05;;;;;;;6.45;0.93;;;6.90;99.90;;;;;;5025136;28;20049;-83
2024/02/20 00:10:33;;;;;;;8.20;1.15;;;6.90;99.90;;;;;;5018604;28;20563;-83
2024/02/20 00:13:02;;;;;;;11.32;2.22;;;6.90;99.90;;;;;;5007070;28;20054;-83
2024/02/20 00:15:29;;;;;;;13.18;2.42;;;6.90;99.90;;;;;;5005533;28;20042;-82
2024/02/20 00:17:56;;;;;;;17.23;2.10;;;6.90;99.90;;;;;;5007548;28;20042;-83
2024/02/20 00:20:23;;;;;;;14.20;2.00;;;6.90;99.90;;;;;;4987616;28;20482;-83
2024/02/20 00:22:51;;;;;;;10.48;1.85;;;6.90;99.90;;;;;;5001341;28;20402;-83
2024/02/20 00:28:08;;;;;;;8.38;2.30;;;6.90;99.90;;;;;;5193706;23;20062;-76
2024/02/20 00:30:36;;;;;;;12.00;2.58;;;6.90;99.90;;;;;;5623026;23;20495;-76
2024/02/20 00:33:03;;;;;;;9.70;1.48;;;6.80;99.90;;;;;;5383959;23;20295;-82
2024/02/20 00:35:33;;;;;;;5.57;1.23;;;6.80;99.90;;;;;;4920318;28;20051;-83
2024/02/20 00:38:00;;;;;;;9.25;1.63;;;6.80;99.90;;;;;;4924318;28;20123;-84
2024/02/20 00:40:52;;;;;;;10.82;2.13;;;6.80;99.90;;;;;;4975415;23;20050;31
2024/02/20 00:43:19;;;;;;;7.30;1.53;;;6.80;99.90;;;;;;4868118;23;20055;-83
2024/02/20 00:45:46;;;;;;;7.22;1.55;;;6.70;99.90;;;;;;4944903;29;20043;-82
2024/02/20 00:48:14;;;;;;;10.82;1.92;;;6.70;99.90;;;;;;4924202;29;20051;-82
2024/02/20 00:53:13;;;;;;;9.68;1.23;;;6.60;99.90;;;;;;4928957;23;20415;-84
2024/02/20 00:55:41;;;;;;;9.48;1.40;;;6.60;99.90;;;;;;4941464;29;20497;-83
2024/02/20 00:58:08;;;;;;;10.13;1.10;;;6.60;99.90;;;;;;4946377;28;20047;-83
2024/02/20 01:00:35;;;;;;;5.95;1.20;;;6.60;99.90;;;;;;4925161;28;20050;-83
2024/02/20 01:03:02;;;;;;;5.10;0.90;;;6.50;99.90;;;;;;4927068;28;20050;-82
2024/02/20 01:05:32;;;;;;;6.15;1.33;;;6.50;99.90;;;;;;4946795;28;20062;-84
2024/02/20 01:07:59;;;;;;;6.57;1.33;;;6.50;99.90;;;;;;4959441;28;20051;-85
2024/02/20 01:10:26;;;;;;;7.00;1.23;;;6.50;99.90;;;;;;4923491;29;20051;-83
2024/02/20 01:12:54;;;;;;;7.47;1.30;;;6.40;99.90;;;;;;4962567;28;20058;-83
2024/02/20 01:15:21;;;;;;;8.75;1.00;;;6.50;99.90;;;;;;4927302;28;20497;-83
2024/02/20 01:17:48;;;;;;;7.80;1.13;;;6.50;99.90;;;;;;4938001;29;20054;-84
2024/02/20 01:20:18;;;;;;;10.73;1.42;;;6.50;99.90;;;;;;4916641;28;20064;-84
2024/02/20 01:22:45;;;;;;;4.25;1.33;;;6.50;99.90;;;;;;4939236;28;20054;-83
2024/02/20 01:25:13;;;;;;;7.75;1.80;;;6.50;99.90;;;;;;4898729;29;20062;-83
2024/02/20 01:27:40;;;;;;;6.60;1.10;;;6.50;99.90;;;;;;4919832;29;20170;-83
2024/02/20 01:30:08;;;;;;;4.45;1.73;;;6.60;99.90;;;;;;4917680;29;20047;-83
2024/02/20 01:32:44;;;;;;;6.32;1.05;;;6.60;99.90;;;;;;4935597;29;20058;-83
2024/02/20 01:35:11;;;;;;;7.82;1.05;;;6.60;99.90;;;;;;4923194;29;20046;-83
2024/02/20 01:37:38;;;;;;;18.08;2.92;;;6.60;99.90;;;;;;4919897;28;20055;-83
2024/02/20 01:40:07;;;;;;;13.93;2.10;;;6.60;99.90;;;;;;4926109;28;20384;-84
2024/02/20 01:42:38;;;;;;;8.40;1.27;;;6.70;99.90;;;;;;4939365;28;20142;-83
2024/02/20 01:45:06;;;;;;;10.63;1.70;;;6.70;99.90;;;;;;4940027;28;20058;-83
2024/02/20 01:47:33;;;;;;;13.13;2.10;;;6.70;99.90;;;;;;4935224;28;20065;-83
2024/02/20 01:50:01;;;;;;;9.60;1.27;;;6.70;99.90;;;;;;4925687;29;20047;-84
2024/02/20 01:52:28;;;;;;;12.90;1.63;;;6.70;99.90;;;;;;4903739;29;20055;-83
2024/02/20 01:55:01;;;;;;;11.27;1.25;;;6.70;99.90;;;;;;4935125;29;20416;-83
2024/02/20 01:57:28;;;;;;;10.13;2.08;;;6.70;99.90;;;;;;4919502;29;20078;-83
2024/02/20 01:59:55;;;;;;;6.55;1.27;;;6.70;99.90;;;;;;4914344;29;20051;-83
2024/02/20 02:02:22;;;;;;;8.77;1.40;;;6.70;99.90;;;;;;4925321;29;20047;-83
2024/02/20 02:04:49;;;;;;;8.57;2.10;;;6.70;99.90;;;;;;4947604;28;20051;-83
2024/02/20 02:07:17;;;;;;;10.32;1.77;;;6.70;99.90;;;;;;4918089;28;20105;-83
2024/02/20 02:09:44;;;;;;;8.65;1.65;;;6.70;99.90;;;;;;4930226;28;20074;-83
2024/02/20 02:12:11;;;;;;;9.63;1.05;;;6.70;99.90;;;;;;4920707;28;20047;-83
2024/02/20 02:14:45;;;;;;;7.57;1.25;;;6.70;99.90;;;;;;4920205;29;20376;-83
2024/02/20 02:17:13;;;;;;;6.43;1.00;;;6.70;99.90;;;;;;4951299;28;20054;-83
2024/02/20 02:19:40;;;;;;;7.88;1.60;;;6.60;99.90;;;;;;4941633;28;20042;-83
2024/02/20 02:22:08;;;;;;;12.60;1.02;;;6.60;99.90;;;;;;4948527;28;20065;-83
2024/02/20 02:24:35;;;;;;;6.38;2.13;;;6.60;99.90;;;;;;4966960;28;20051;-83
2024/02/20 02:27:03;;;;;;;8.20;1.25;;;6.60;99.90;;;;;;4898141;28;20121;-83
2024/02/20 02:29:33;;;;;;;11.73;1.35;;;6.60;99.90;;;;;;4964911;28;20090;-83
2024/02/20 02:32:01;;;;;;;12.05;1.55;;;6.60;99.90;;;;;;4952315;28;20047;-84
2024/02/20 02:34:29;;;;;;;7.88;1.20;;;6.60;99.90;;;;;;4923215;29;20040;-84
2024/02/20 02:36:56;;;;;;;4.60;1.08;;;6.60;99.90;;;;;;4905664;29;20051;-84
2024/02/20 02:39:24;;;;;;;7.65;0.93;;;6.60;99.90;;;;;;4911814;29;20051;-84
2024/02/20 02:41:52;;;;;;;4.47;1.20;;;6.60;99.90;;;;;;4941322;28;20048;-84
2024/02/20 02:44:19;;;;;;;4.82;0.90;;;6.60;99.90;;;;;;4957868;28;20055;-84
2024/02/20 02:46:46;;;;;;;4.57;0.90;;;6.60;99.90;;;;;;4944402;28;20550;-84
2024/02/20 02:49:13;;;;;;;5.47;1.17;;;6.60;99.90;;;;;;4903796;28;20054;-84
2024/02/20 02:51:41;;;;;;;4.05;0.80;;;6.60;99.90;;;;;;4906516;29;20055;-83
2024/02/20 02:54:08;;;;;;;3.42;0.65;;;6.60;99.90;;;;;;4894378;29;20044;-83
2024/02/20 02:56:36;;;;;;;2.75;0.60;;;6.60;99.90;;;;;;4902939;28;20094;-84
2024/02/20 02:59:04;;;;;;;6.03;0.47;;;6.60;99.90;;;;;;4927232;28;20138;-84
2024/02/20 03:01:31;;;;;;;6.50;0.90;;;6.60;99.90;;;;;;4933150;28;20042;-83
2024/02/20 03:04:00;;;;;;;6.13;0.98;;;6.60;99.90;;;;;;4925587;29;20452;-84
2024/02/20 03:06:27;;;;;;;3.05;0.50;;;6.60;99.90;;;;;;4910910;28;20082;-85
2024/02/20 03:08:54;;;;;;;1.80;0.30;;;6.60;99.90;;;;;;4957319;28;20061;-84
2024/02/20 03:11:21;;;;;;;4.95;0.70;;;6.60;99.90;;;;;;4930968;28;20067;-84
2024/02/20 03:13:49;;;;;;;5.03;0.50;;;6.60;99.90;;;;;;4925694;29;20050;-85
2024/02/20 03:16:16;;;;;;;6.35;0.88;;;6.50;99.90;;;;;;4930857;28;20093;-85
2024/02/20 03:18:43;;;;;;;5.32;0.90;;;6.50;99.90;;;;;;4933152;29;20054;-84
2024/02/20 03:21:10;;;;;;;4.18;1.13;;;6.60;99.90;;;;;;4906816;29;20067;-84
2024/02/20 03:23:37;;;;;;;2.30;0.85;;;6.50;99.90;;;;;;4928787;29;20463;-84
2024/02/20 03:26:07;;;;;;;2.90;0.60;;;6.50;99.90;;;;;;4942900;29;20047;-84
2024/02/20 03:28:37;;;;;;;2.92;0.40;;;6.50;99.90;;;;;;4897353;29;20114;-84
2024/02/20 03:31:07;;;;;;;3.45;0.70;;;6.50;99.90;;;;;;4898970;29;20048;-84
2024/02/20 03:33:34;;;;;;;5.30;0.60;;;6.50;99.90;;;;;;4921928;29;20416;-83
2024/02/20 03:36:02;;;;;;;6.65;1.00;;;6.50;99.90;;;;;;4964150;28;20075;-84
2024/02/20 03:38:29;;;;;;;2.55;0.60;;;6.40;99.90;;;;;;4940901;29;20040;-84
2024/02/20 03:40:56;;;;;;;3.08;0.70;;;6.50;99.90;;;;;;4930643;29;20159;-84
2024/02/20 03:43:23;;;;;;;6.32;1.30;;;6.50;99.90;;;;;;4912065;29;20044;-84
2024/02/20 03:45:50;;;;;;;7.93;1.38;;;6.50;99.90;;;;;;4934231;29;20052;-84
2024/02/20 03:48:17;;;;;;;8.63;1.83;;;6.50;99.90;;;;;;4934615;29;20098;-83
2024/02/20 03:50:45;;;;;;;9.02;2.38;;;6.50;99.90;;;;;;4940215;29;20058;-83
2024/02/20 03:53:12;;;;;;;10.35;1.70;;;6.50;99.90;;;;;;4951716;28;20055;-84
2024/02/20 03:55:40;;;;;;;6.63;1.75;;;6.50;99.90;;;;;;4909181;29;20058;-84
2024/02/20 03:58:07;;;;;;;8.88;2.17;;;6.50;99.90;;;;;;4909417;28;20043;-84
2024/02/20 04:00:34;;;;;;;12.18;2.33;;;6.40;99.90;;;;;;4905849;28;20054;-84
2024/02/20 04:03:02;;;;;;;4.72;1.42;;;6.50;99.90;;;;;;4936701;28;20054;-84
2024/02/20 04:05:29;;;;;;;6.20;1.20;;;6.50;99.90;;;;;;4945782;28;20051;-83
2024/02/20 04:07:57;;;;;;;7.68;1.33;;;6.40;99.90;;;;;;4914812;28;20055;-83
2024/02/20 04:10:24;;;;;;;7.38;1.20;;;6.40;99.90;;;;;;4932685;28;20146;-84
2024/02/20 04:12:51;;;;;;;7.55;2.25;;;6.40;99.90;;;;;;4925116;28;20518;-84
2024/02/20 04:15:18;;;;;;;6.22;1.30;;;6.40;99.90;;;;;;4925011;28;20102;-83
2024/02/20 04:17:46;;;;;;;4.68;1.08;;;6.40;99.90;;;;;;4924502;28;20040;-84
2024/02/20 04:20:13;;;;;;;7.82;1.20;;;6.40;99.90;;;;;;4937339;28;20094;-84
2024/02/20 04:22:41;;;;;;;4.53;1.38;;;6.40;99.90;;;;;;4941139;28;20055;-84
2024/02/20 04:25:08;;;;;;;7.07;1.52;;;6.40;99.90;;;;;;4946625;28;20442;-84
2024/02/20 04:27:38;;;;;;;4.18;0.90;;;6.30;99.90;;;;;;4918518;28;20415;-84
2024/02/20 04:30:07;;;;;;;5.00;1.10;;;6.30;99.90;;;;;;4924814;29;20476;-84
2024/02/20 04:32:34;;;;;;;6.90;1.20;;;6.30;99.90;;;;;;4927735;28;20051;-84
2024/02/20 04:35:01;;;;;;;6.18;1.10;;;6.30;99.90;;;;;;4950912;29;20073;-84
2024/02/20 04:37:29;;;;;;;3.85;0.80;;;6.30;99.90;;;;;;4932446;29;20091;-84
2024/02/20 04:39:56;;;;;;;4.00;0.88;;;6.30;99.90;;;;;;4946182;28;20138;-84
2024/02/20 04:42:23;;;;;;;4.80;0.90;;;6.30;99.90;;;;;;4917998;29;20815;-83
2024/02/20 04:44:51;;;;;;;3.28;0.80;;;6.30;99.90;;;;;;4902122;29;20047;-84
2024/02/20 04:47:18;;;;;;;2.42;0.80;;;6.30;99.90;;;;;;4906067;29;20111;-84
2024/02/20 04:49:50;;;;;;;5.35;1.48;;;6.30;99.90;;;;;;4903972;28;20057;-84
2024/02/20 04:52:17;;;;;;;4.60;0.90;;;6.40;99.90;;;;;;4929389;29;20051;-85
2024/02/20 04:54:44;;;;;;;5.68;2.10;;;6.40;99.90;;;;;;4936560;29;20459;-84
2024/02/20 04:57:11;;;;;;;5.07;1.00;;;6.40;99.90;;;;;;4920823;29;20058;-84
2024/02/20 04:59:41;;;;;;;3.58;1.23;;;6.40;99.90;;;;;;4920641;29;20051;-83
2024/02/20 05:02:13;;;;;;;6.95;1.48;;;6.40;99.90;;;;;;4918551;29;20185;-84
2024/02/20 05:04:40;;;;;;;3.50;1.13;;;6.40;99.90;;;;;;4931496;29;20043;-84
2024/02/20 05:07:08;;;;;;;7.18;1.38;;;6.40;99.90;;;;;;4908312;29;20043;-84
2024/02/20 05:09:35;;;;;;;5.78;1.30;;;6.40;99.90;;;;;;4892543;29;20167;-84
2024/02/20 05:12:02;;;;;;;4.65;1.00;;;6.40;99.90;;;;;;4886015;29;20128;-85
2024/02/20 05:14:29;;;;;;;5.63;1.27;;;6.40;99.90;;;;;;4903500;29;20043;-85
2024/02/20 05:16:56;;;;;;;5.07;1.25;;;6.40;99.90;;;;;;4920255;29;20079;-84
2024/02/20 05:19:23;;;;;;;4.20;1.02;;;6.50;99.90;;;;;;4932772;28;20047;-85
2024/02/20 05:21:50;;;;;;;3.75;1.00;;;6.40;99.90;;;;;;4939493;29;20487;-84
2024/02/20 05:24:17;;;;;;;3.03;0.60;;;6.50;99.90;;;;;;4926239;29;20560;-85
2024/02/20 05:26:44;;;;;;;3.65;0.73;;;6.40;99.90;;;;;;4907404;29;20400;-84
2024/02/20 05:29:11;;;;;;;4.80;1.00;;;6.50;99.90;;;;;;4898071;29;20059;-84
2024/02/20 05:31:38;;;;;;;9.45;1.23;;;6.40;99.90;;;;;;4944283;28;20046;-85
2024/02/20 05:34:07;;;;;;;5.03;1.25;;;6.40;99.90;;;;;;4922995;29;20126;-84
2024/02/20 05:36:35;;;;;;;4.93;1.63;;;6.40;99.90;;;;;;4910572;29;20043;-85
2024/02/20 05:39:02;;;;;;;5.72;1.83;;;6.40;99.90;;;;;;4936292;29;20414;-84
2024/02/20 05:41:33;;;;;;;7.68;1.95;;;6.40;99.90;;;;;;4949922;28;20047;-85
2024/02/20 05:44:01;;;;;;;10.02;1.75;;;6.50;99.90;;;;;;4932284;28;20042;-85
2024/02/20 05:46:29;;;;;;;5.38;1.15;;;6.50;99.90;;;;;;4927154;28;20059;-84
2024/02/20 05:48:57;;;;;;;3.65;1.10;;;6.50;99.90;;;;;;4938821;29;20054;-84
2024/02/20 05:51:27;;;;;;;5.55;1.35;;;6.50;99.90;;;;;;4949263;28;20049;-83
2024/02/20 05:53:54;;;;;;;2.80;0.63;;;6.50;99.90;;;;;;4942112;28;20062;-85
2024/02/20 05:56:22;;;;;;;4.13;0.60;;;6.50;99.90;;;;;;4929588;29;20094;-85
2024/02/20 05:58:52;;;;;;;4.90;0.85;;;6.50;99.90;;;;;;4951077;29;20407;-85
2024/02/20 06:01:20;;;;;;;5.22;0.70;;;6.50;99.90;;;;;;4942399;28;20042;-85
2024/02/20 06:03:47;;;;;;;4.75;0.52;;;6.50;99.90;;;;;;4925570;28;20574;-84
2024/02/20 06:06:15;;;;;;;4.68;0.80;;;6.50;99.90;;;;;;4926818;28;20042;-84
2024/02/20 06:08:46;;;;;;;2.65;0.50;;;6.50;99.90;;;;;;4932537;28;20053;-85
2024/02/20 06:11:18;;;;;;;5.13;0.63;;;6.50;99.90;;;;;;4939991;28;20086;-85
2024/02/20 06:13:45;;;;;;;2.38;0.70;;;6.50;99.90;;;;;;4939006;29;20134;-84
2024/02/20 06:16:13;;;;;;;2.60;0.55;;;6.50;99.90;;;;;;4892549;29;20052;-85
2024/02/20 06:18:41;;;;;;;2.30;0.50;;;6.50;99.90;;;;;;4932268;28;20475;-85
2024/02/20 06:21:09;;;;;;;3.42;0.93;;;6.50;99.90;;;;;;4938111;29;20067;-85
2024/02/20 06:23:37;;;;;;;5.55;0.93;;;6.50;99.90;;;;;;4913415;29;20052;-84
2024/02/20 06:26:05;;;;;;;4.13;1.00;;;6.50;99.90;;;;;;4947831;28;20051;-85
2024/02/20 06:28:33;;;;;;;5.22;1.20;;;6.50;99.90;;;;;;4961852;28;20043;-85
2024/02/20 06:31:05;;;;;;;4.85;1.42;;;6.50;99.90;;;;;;4969682;28;20051;-84
2024/02/20 06:33:33;;;;;;;;;;;6.60;99.90;;;;;;4955019;28;20487;-85
2024/02/20 06:36:00;;;;;;;3.00;0.57;;;6.50;99.90;;;;;;4943171;29;19929;-85
2024/02/20 06:38:36;;;;;;;3.35;0.80;;;6.50;99.90;;;;;;4957748;29;20047;-84
2024/02/20 06:41:04;;;;;;;3.72;0.70;;;6.50;99.90;;;;;;4934214;29;20044;-85
2024/02/20 06:43:31;;;;;;;3.13;0.55;;;6.50;99.90;;;;;;4955243;29;20051;-85
2024/02/20 06:46:00;;;;;;;2.40;0.63;;;6.50;99.90;;;;;;4953337;28;20517;-84
2024/02/20 06:48:27;;;;;;;2.17;0.63;;;6.50;99.90;;;;;;4928944;29;20749;-85
2024/02/20 06:50:54;;;;;;;2.58;0.70;;;6.50;99.90;;;;;;4946005;29;20110;-84
2024/02/20 06:53:21;;;;;;;2.15;0.50;;;6.40;99.90;;;;;;4939052;29;20546;-84
2024/02/20 06:55:48;;;;;;;2.67;0.55;;;6.50;99.90;;;;;;4892932;29;20052;-85
2024/02/20 06:58:16;;;;;;;2.97;0.82;;;6.40;99.90;;;;;;4915176;29;20039;-85
2024/02/20 07:00:43;;;;;;;3.10;0.98;;;6.40;99.90;;;;;;4893518;29;20051;-85
2024/02/20 07:03:12;;;;;;;3.65;1.00;;;6.40;99.90;;;;;;4932954;29;20044;-84
2024/02/20 07:05:39;;;;;;;5.18;1.00;;;6.40;99.90;;;;;;4939029;29;20075;-84
2024/02/20 07:08:07;;;;;;;8.70;2.13;;;6.40;99.90;;;;;;4890300;29;20131;-84
2024/02/20 07:10:34;;;;;;;9.15;2.83;;;6.40;99.90;;;;;;4888986;29;20139;-84
2024/02/20 07:13:01;;;;;;;8.57;1.98;;;6.40;99.90;;;;;;4903908;29;20052;-85
2024/02/20 07:15:28;;;;;;;6.78;2.13;;;6.40;99.90;;;;;;4879096;29;20056;-85
2024/02/20 07:17:55;;;;;;;5.03;2.08;;;6.40;99.90;;;;;;4922024;29;20048;-85
2024/02/20 07:20:22;;;;;;;4.57;1.63;;;6.40;99.90;;;;;;4914799;29;20047;-85
2024/02/20 07:22:52;;;;;;;5.22;1.67;;;6.40;99.90;;;;;;4925076;29;20044;-85
2024/02/20 07:25:22;;;;;;;7.72;2.20;;;6.50;99.90;;;;;;4931945;29;20573;-84
2024/02/20 07:27:49;;;;;;;4.75;1.23;;;6.50;99.90;;;;;;4932294;29;20047;-84
2024/02/20 07:30:17;;;;;;;7.40;1.75;;;6.50;99.90;;;;;;4908534;29;20075;-85
2024/02/20 07:32:47;;;;;;;6.35;1.90;;;6.50;99.90;;;;;;4922963;29;20052;-84
2024/02/20 07:35:16;;;;;;;4.97;1.63;;;6.60;99.90;;;;;;4908407;29;20050;-84
2024/02/20 07:37:45;;;;;;;7.60;2.45;;;6.60;99.90;;;;;;4916064;29;20059;-84
2024/02/20 07:40:12;;;;;;;3.92;1.40;;;6.70;99.90;;;;;;4921712;29;20082;-84
2024/02/20 07:42:40;;;;;;;7.97;2.38;;;6.70;99.90;;;;;;4913690;29;20050;-84
2024/02/20 07:45:09;;;;;;;6.13;1.80;;;6.80;99.90;;;;;;4910642;29;20051;-84
2024/02/20 07:47:36;;;;;;;11.27;2.47;;;6.80;99.90;;;;;;4884681;29;20409;-84
2024/02/20 07:50:04;;;;;;;8.43;2.33;;;6.90;99.90;;;;;;4885103;29;20052;-83
2024/02/20 07:52:32;;;;;;;5.20;1.58;;;6.90;99.90;;;;;;4892129;29;20147;-84
2024/02/20 07:55:18;;;;;;;6.30;2.33;;;7.00;99.90;;;;;;4936758;29;20395;-85
2024/02/20 07:57:45;;;;;;;12.65;3.67;;;7.10;99.90;;;;;;4902901;29;20114;-84
2024/02/20 08:00:13;;;;;;;11.63;3.25;;;7.10;99.90;;;;;;4915177;29;20053;-85
2024/02/20 08:02:40;;;;;;;12.95;3.65;;;7.20;99.90;;;;;;4890756;29;20134;-85
2024/02/20 08:05:09;;;;;;;15.43;4.72;;;7.20;99.90;;;;;;4906030;29;20052;-85
2024/02/20 08:07:37;;;;;;;11.68;4.20;;;7.20;99.90;;;;;;4935261;29;20043;-84
2024/02/20 08:10:07;;;;;;;13.10;3.00;;;7.30;99.90;;;;;;4930199;29;20170;-85
2024/02/20 08:12:38;;;;;;;11.63;3.22;;;7.30;99.90;;;;;;4921671;29;20051;-83
2024/02/20 08:15:07;;;;;;;10.82;3.72;;;7.30;99.90;;;;;;4906724;29;20499;-85
2024/02/20 08:17:34;;;;;;;8.07;2.50;;;7.40;99.90;;;;;;4921822;29;20471;-85
2024/02/20 08:20:04;;;;;;;6.93;3.08;;;7.40;99.90;;;;;;4893287;29;20052;-85
2024/02/20 08:22:31;;;;;;;12.07;4.10;;;7.40;99.90;;;;;;4893869;29;20048;-85
2024/02/20 08:24:58;;;;;;;6.55;2.58;;;7.50;99.90;;;;;;4877296;29;20562;-85
2024/02/20 08:27:25;;;;;;;12.23;4.25;;;7.50;99.90;;;;;;4892676;29;20158;-85
2024/02/20 08:29:54;;;;;;;9.85;2.83;;;7.50;99.90;;;;;;4892981;29;20056;-85
2024/02/20 08:32:21;;;;;;;11.70;3.95;;;7.60;99.90;;;;;;4921366;29;20128;-85
2024/02/20 08:34:48;;;;;;;13.40;4.50;;;7.60;99.90;;;;;;4898191;29;20415;-85
2024/02/20 08:37:15;;;;;;;10.35;3.55;;;7.60;99.90;;;;;;4907359;29;20850;-84
2024/02/20 08:39:44;;;;;;;7.88;3.03;;;7.70;99.90;;;;;;4905293;29;20044;-85
2024/02/20 08:42:12;;;;;;;8.38;3.08;;;7.70;99.90;;;;;;4890591;29;20067;-85
2024/02/20 08:45:04;;;;;;;9.77;3.40;;;7.70;99.90;;;;;;4921421;28;20099;-85
2024/02/20 08:47:31;;;;;;;12.80;2.83;;;7.80;99.90;;;;;;4933411;29;20058;-86
2024/02/20 08:49:58;;;;;;;11.18;3.60;;;7.80;99.90;;;;;;4918085;29;20047;-85
2024/02/20 08:52:26;;;;;;;10.80;3.85;;;7.80;99.90;;;;;;4920996;29;20059;-83
2024/02/20 08:54:53;;;;;;;13.15;5.18;;;7.90;99.90;;;;;;4923302;29;20138;-83
2024/02/20 08:57:23;;;;;;;11.60;4.05;;;7.90;99.90;;;;;;4924029;29;20039;-83
2024/02/20 08:59:50;;;;;;;15.52;4.35;;;7.90;99.90;;;;;;4923379;29;20470;-82
2024/02/20 09:02:19;;;;;;;14.00;3.75;;;7.90;99.90;;;;;;4908539;28;20047;-82
2024/02/20 09:04:46;;;;;;;15.65;4.05;;;8.00;99.90;;;;;;4930877;29;20047;-82
2024/02/20 09:07:13;;;;;;;11.23;3.65;;;8.00;99.90;;;;;;4965513;28;20380;-83
2024/02/20 09:09:40;;;;;;;13.32;3.92;;;8.00;99.90;;;;;;4957874;28;20372;-83
2024/02/20 09:12:08;;;;;;;9.85;4.28;;;8.10;99.90;;;;;;4975379;28;20046;-83
2024/02/20 09:14:36;;;;;;;10.18;4.28;;;8.20;99.90;;;;;;4926432;28;20491;-83
2024/02/20 09:17:03;;;;;;;16.45;4.75;;;8.20;99.90;;;;;;4917157;28;20047;-82
2024/02/20 09:19:29;;;;;;;13.07;4.78;;;8.30;99.90;;;;;;4911812;28;20046;-83
2024/02/20 09:21:57;;;;;;;15.77;5.63;;;8.40;99.90;;;;;;4926978;28;20058;-83
2024/02/20 09:24:24;;;;;;;12.85;4.95;;;8.40;99.90;;;;;;4929049;28;20047;-83
2024/02/20 09:26:51;;;;;;;15.98;5.28;;;8.50;99.90;;;;;;4938627;28;20402;-82
2024/02/20 09:29:18;;;;;;;16.23;5.15;;;8.50;99.90;;;;;;4942127;28;20074;-83
2024/02/20 09:31:45;;;;;;;13.63;5.07;;;8.50;99.90;;;;;;4941931;28;20058;-83
2024/02/20 09:34:12;;;;;;;13.55;4.80;;;8.60;99.90;;;;;;4917423;29;20600;-83
2024/02/20 09:36:41;;;;;;;16.23;5.50;;;8.60;99.90;;;;;;4907987;28;20070;-86
2024/02/20 09:39:09;;;;;;;16.00;4.38;;;8.60;99.90;;;;;;4931421;29;20048;-85
2024/02/20 09:41:37;;;;;;;16.00;4.72;;;8.60;99.90;;;;;;4934336;29;20054;-86
2024/02/20 09:44:05;;;;;;;12.23;3.35;;;8.60;99.90;;;;;;4938350;29;20074;-83
2024/02/20 09:46:41;;;;;;;8.25;3.10;;;8.70;99.90;;;;;;4934631;28;20062;-83
2024/02/20 09:49:09;;;;;;;13.00;4.00;;;8.70;99.90;;;;;;4931149;28;20109;-83
2024/02/20 09:51:39;;;;;;;11.27;4.45;;;8.80;99.90;;;;;;4946749;28;20575;-83
2024/02/20 09:54:07;;;;;;;9.88;3.55;;;8.90;99.90;;;;;;4937786;28;20499;-82
2024/02/20 09:56:36;;;;;;;11.38;3.85;;;8.90;99.90;;;;;;4946716;28;20114;-83
2024/02/20 09:59:04;;;;;;;10.85;4.18;;;9.00;99.90;;;;;;4930329;28;20049;-84
2024/02/20 10:01:32;;;;;;;13.40;3.67;;;9.10;99.90;;;;;;4925588;28;20043;-83
2024/02/20 10:04:08;;;;;;;18.88;4.30;;;9.10;99.90;;;;;;4941497;28;20483;-87
2024/02/20 10:06:38;;;;;;;9.98;4.53;;;9.20;99.90;;;;;;4942484;28;20055;-84
2024/02/20 10:09:05;;;;;;;14.43;4.90;;;9.20;99.90;;;;;;4938867;28;20451;-83
2024/02/20 10:11:36;;;;;;;18.50;5.82;;;9.30;99.90;;;;;;4963652;28;20051;-84
2024/02/20 10:14:03;;;;;;;15.65;5.00;;;9.30;99.90;;;;;;4942240;29;20044;-83
2024/02/20 10:16:30;;;;;;;20.75;5.32;;;9.30;99.90;;;;;;4915147;29;20040;-83
2024/02/20 10:19:02;;;;;;;15.55;4.43;;;9.40;99.90;;;;;;4925144;28;20051;-83
2024/02/20 10:21:30;;;;;;;12.57;4.50;;;9.40;99.90;;;;;;4957574;28;20067;-86
2024/02/20 10:24:07;;;;;;;19.60;6.13;;;9.40;99.90;;;;;;4920652;28;20058;-84
2024/02/20 10:26:47;;;;;;;18.55;6.60;;;9.50;99.90;;;;;;4929376;29;20051;-83
2024/02/20 10:29:14;;;;;;;15.18;5.60;;;9.40;99.90;;;;;;4965035;28;20027;-83
2024/02/20 10:31:41;;;;;;;15.15;5.13;;;9.40;99.90;;;;;;4957262;29;20038;-83
2024/02/20 10:34:08;;;;;;;16.98;4.85;;;9.50;99.90;;;;;;4974150;28;20051;-83
2024/02/20 10:36:41;;;;;;;17.92;5.57;;;9.50;99.90;;;;;;4942215;28;20129;-82
2024/02/20 10:39:12;;;;;;;12.32;5.55;;;9.60;99.90;;;;;;4937770;29;20550;-83
2024/02/20 10:41:39;;;;;;;14.35;4.65;;;9.60;99.90;;;;;;4949461;28;20046;-83
2024/02/20 10:44:07;;;;;;;13.32;4.57;;;9.70;99.90;;;;;;4957400;28;20113;-83
2024/02/20 10:46:39;;;;;;;16.80;6.50;;;9.70;99.90;;;;;;4944395;29;20050;-82
2024/02/20 10:49:23;;;;;;;16.92;7.13;;;9.70;99.90;;;;;;4930958;28;20043;-82
2024/02/20 10:51:54;;;;;;;19.55;6.65;;;9.70;99.90;;;;;;4956569;28;20498;-81
2024/02/20 10:54:23;;;;;;;14.45;6.22;;;9.70;99.90;;;;;;4940302;28;20055;-83
2024/02/20 10:57:00;;;;;;;18.45;6.28;;;9.80;99.90;;;;;;4926581;28;20054;-83
2024/02/20 10:59:27;;;;;;;19.63;5.63;;;9.80;99.90;;;;;;4930970;29;20035;-83
2024/02/20 11:01:54;;;;;;;20.00;6.95;;;9.80;99.90;;;;;;4924888;28;20049;-83
2024/02/20 11:04:22;;;;;;;19.83;7.30;;;9.80;99.90;;;;;;4945907;28;20051;-82
2024/02/20 11:06:52;;;;;;;10.90;6.05;;;9.80;99.90;;;;;;4931989;29;20055;-83
2024/02/20 11:09:21;;;;;;;17.08;6.00;;;9.90;99.90;;;;;;4934435;28;20055;-82
2024/02/20 11:11:48;;;;;;;22.67;6.90;;;9.90;99.90;;;;;;4929961;29;20455;-82
2024/02/20 11:14:35;;;;;;;12.80;4.75;;;9.90;99.90;;;;;;4927671;28;20133;-82
2024/02/20 11:17:14;;;;;;;18.50;6.00;;;10.00;99.90;;;;;;4928671;28;20375;-83
2024/02/20 11:20:31;;;;;;;18.77;4.90;;;10.00;99.90;;;;;;4925065;28;20427;-84
2024/02/20 11:23:08;;;;;;;16.65;5.47;;;10.00;99.90;;;;;;4927000;28;20047;-82
2024/02/20 11:25:37;;;;;;;20.80;6.35;;;10.10;99.90;;;;;;4959814;28;20491;-82
2024/02/20 11:28:14;;;;;;;22.15;6.63;;;10.10;99.90;;;;;;4939176;28;20106;-82
2024/02/20 11:30:45;;;;;;;21.02;6.38;;;10.10;99.90;;;;;;4959629;28;20054;-82
2024/02/20 11:33:18;;;;;;;14.48;5.45;;;10.10;99.90;;;;;;4946939;28;20062;-83
2024/02/20 11:35:46;;;;;;;13.57;5.03;;;10.20;99.90;;;;;;4951665;29;20047;-82
2024/02/20 11:38:20;;;;;;;18.65;6.20;;;10.20;99.90;;;;;;4926472;29;20048;-81
2024/02/20 11:40:47;;;;;;;22.35;6.22;;;10.20;99.90;;;;;;4933251;29;20052;-82
2024/02/20 11:43:27;;;;;;;19.60;5.70;;;10.30;99.90;;;;;;4923069;29;20501;-89
2024/02/20 11:46:02;;;;;;;17.65;5.82;;;10.30;99.90;;;;;;4948328;28;20058;-89
2024/02/20 11:48:31;;;;;;;13.88;4.75;;;10.40;99.90;;;;;;4949330;28;20094;-88
2024/02/20 11:51:00;;;;;;;19.75;7.43;;;10.40;99.90;;;;;;4927150;29;20051;-88
2024/02/20 11:53:28;;;;;;;18.25;7.30;;;10.50;99.90;;;;;;4902418;29;20056;-88
2024/02/20 11:55:55;;;;;;;12.57;5.47;;;10.50;99.90;;;;;;4921226;29;20436;-88
2024/02/20 11:58:24;;;;;;;14.88;5.35;;;10.50;99.90;;;;;;4897864;29;20401;-87
2024/02/20 12:01:05;;;;;;;16.60;6.28;;;10.60;99.90;;;;;;4888693;29;20078;-85
2024/02/20 12:03:35;;;;;;;16.00;6.07;;;10.60;99.90;;;;;;4913018;29;20095;-87
2024/02/20 12:06:04;;;;;;;14.80;5.60;;;10.60;99.90;;;;;;4900979;29;20044;-87
2024/02/20 12:08:41;;;;;;;22.92;6.63;;;10.60;99.90;;;;;;4903627;29;20048;-87
2024/02/20 12:11:16;;;;;;;18.90;7.25;;;10.60;99.90;;;;;;4909653;29;20110;-89
2024/02/20 12:13:52;;;;;;;19.60;5.47;;;10.70;99.90;;;;;;4925053;28;20107;-87
2024/02/20 12:16:29;;;;;;;16.17;5.03;;;10.70;99.90;;;;;;4935634;29;20047;-85
2024/02/20 12:18:58;;;;;;;25.60;7.28;;;10.80;99.90;;;;;;4916489;29;20443;-86
2024/02/20 12:21:29;;;;;;;14.32;4.97;;;10.80;99.90;;;;;;4920280;29;20047;-86
2024/02/20 12:23:58;;;;;;;14.15;5.63;;;10.80;99.90;;;;;;4905206;29;20055;-86
2024/02/20 12:26:26;;;;;;;15.20;4.20;;;10.80;99.90;;;;;;4906237;29;20146;-85
2024/02/20 12:28:54;;;;;;;18.20;5.45;;;10.90;99.90;;;;;;4920702;29;20047;-85
2024/02/20 12:31:28;;;;;;;17.95;5.47;;;10.90;99.90;;;;;;4908674;29;20044;-88
2024/02/20 12:33:59;;;;;;;14.15;4.93;;;10.90;99.90;;;;;;4888008;29;20103;-89
2024/02/20 12:36:29;;;;;;;17.13;4.93;;;10.90;99.90;;;;;;4926900;29;20095;-90
2024/02/20 12:38:58;;;;;;;15.38;4.55;;;11.00;99.90;;;;;;4908824;29;20074;-90
2024/02/20 12:41:27;;;;;;;12.63;4.57;;;11.00;99.90;;;;;;4910738;29;20047;-86
2024/02/20 12:43:54;;;;;;;17.30;5.15;;;11.10;99.90;;;;;;4888061;29;20151;-86
2024/02/20 12:46:21;;;;;;;19.75;6.05;;;11.10;99.90;;;;;;4897533;29;20070;-87
2024/02/20 12:48:53;;;;;;;16.10;4.22;;;11.10;99.90;;;;;;4878891;29;20103;-87
2024/02/20 12:51:23;;;;;;;13.38;4.55;;;11.10;99.90;;;;;;4896056;29;20057;-88
2024/02/20 12:53:50;;;;;;;11.98;4.18;;;11.20;99.90;;;;;;4904553;29;20444;-88
2024/02/20 12:56:17;;;;;;;11.90;4.45;;;11.20;99.90;;;;;;4924497;29;20051;-88
2024/02/20 12:58:44;;;;;;;14.13;4.45;;;11.30;99.90;;;;;;4909701;29;20051;-87
2024/02/20 13:01:14;;;;;;;17.23;5.60;;;11.30;99.90;;;;;;4890202;29;20051;-85
2024/02/20 13:03:41;;;;;;;15.75;5.28;;;11.20;99.90;;;;;;4937521;29;20047;-88